Time;durP1;ratioP1;P1;durP2;ratioP2;P2;SDS_P1;SDS_P2;PMS_P1;PMS_P2;Temp;Humidity;BMP_temperature;BMP_pressure;BME280_temperature;BME280_humidity;BME280_pressure;Samples;Min_cycle;Max_cycle;Signal;HPM_P1;HPM_P2
2022/09/27 00:01:14;;;;;;;;;;;11.10;99.90;;;;;;5069882;28;20019;-76
2022/09/27 00:03:41;;;;;;;;;;;11.20;99.90;;;;;;5069950;28;20543;-76
2022/09/27 00:06:12;;;;;;;;;;;11.10;99.90;;;;;;5070164;28;20234;-75
2022/09/27 00:08:39;;;;;;;;;;;11.10;99.90;;;;;;5087946;28;19975;-76
2022/09/27 00:11:07;;;;;;;;;;;11.10;99.90;;;;;;5062409;28;19936;-76
2022/09/27 00:13:34;;;;;;;;;;;11.10;99.90;;;;;;5068679;28;19936;-76
2022/09/27 00:16:04;;;;;;;;;;;11.10;99.90;;;;;;5059237;28;19928;-76
2022/09/27 00:18:31;;;;;;;;;;;11.10;99.90;;;;;;5066994;28;19951;-76
2022/09/27 00:21:03;;;;;;;;;;;11.10;99.90;;;;;;5068171;28;19960;-76
2022/09/27 00:23:32;;;;;;;;;;;11.10;99.90;;;;;;5068906;28;19933;-76
2022/09/27 00:25:59;;;;;;;;;;;11.10;99.90;;;;;;5068526;28;19928;-76
2022/09/27 00:28:26;;;;;;;;;;;11.10;99.90;;;;;;5061490;28;20376;-76
2022/09/27 00:30:53;;;;;;;;;;;11.10;99.90;;;;;;5068972;28;20387;-76
2022/09/27 00:33:20;;;;;;;;;;;11.10;99.90;;;;;;5050311;28;19928;-76
2022/09/27 00:35:47;;;;;;;;;;;12.40;99.90;;;;;;5068575;28;20037;-76
2022/09/27 00:38:14;;;;;;;;;;;11.10;99.90;;;;;;5050753;28;19924;-76
2022/09/27 00:40:42;;;;;;;;;;;11.40;99.90;;;;;;5068365;28;19933;-76
2022/09/27 00:43:15;;;;;;;;;;;11.10;99.90;;;;;;5049686;28;19935;-76
2022/09/27 00:45:41;;;;;;;;;;;11.10;99.90;;;;;;5050835;28;19924;-76
2022/09/27 00:48:12;;;;;;;;;;;11.10;99.90;;;;;;5067878;28;19932;-76
2022/09/27 00:50:39;;;;;;;;;;;11.10;99.90;;;;;;5060502;28;19936;-76
2022/09/27 00:53:10;;;;;;;;;;;11.10;99.90;;;;;;5067101;28;19935;-76
2022/09/27 00:55:39;;;;;;;;;;;11.10;99.90;;;;;;5068390;28;19963;-76
2022/09/27 00:58:08;;;;;;;;;;;11.20;99.90;;;;;;5048827;28;19931;-76
2022/09/27 01:00:36;;;;;;;;;;;11.20;99.90;;;;;;5062026;28;20375;-76
2022/09/27 01:03:06;;;;;;;;;;;11.20;99.90;;;;;;5070204;28;19928;-76
2022/09/27 01:05:32;;;;;;;;;;;11.20;99.90;;;;;;5048467;28;19974;-77
2022/09/27 01:07:59;;;;;;;;;;;11.20;99.90;;;;;;5054271;28;19928;-76
2022/09/27 01:10:28;;;;;;;;;;;11.20;99.90;;;;;;5052273;28;20332;-77
2022/09/27 01:12:59;;;;;;;;;;;11.20;99.90;;;;;;5067818;28;20014;-76
2022/09/27 01:15:29;;;;;;;;;;;11.20;99.90;;;;;;5066842;28;20006;-75
2022/09/27 01:18:03;;;;;;;;;;;11.20;99.90;;;;;;5070250;28;20175;-76
2022/09/27 01:20:43;;;;;;;;;;;11.20;99.90;;;;;;5058532;28;20015;-76
2022/09/27 01:23:20;;;;;;;;;;;11.20;99.90;;;;;;5051914;28;19929;-76
2022/09/27 01:25:55;;;;;;;;;;;11.20;99.90;;;;;;5056412;28;20381;-75
2022/09/27 01:28:28;;;;;;;;;;;11.20;99.90;;;;;;5050397;28;19947;-75
2022/09/27 01:31:01;;;;;;;;;;;11.10;99.90;;;;;;5045734;28;21103;-75
2022/09/27 01:33:36;;;;;;;;;;;11.20;99.90;;;;;;5048546;28;19934;-75
2022/09/27 01:36:11;;;;;;;;;;;11.10;99.90;;;;;;5057877;28;21440;-77
2022/09/27 01:38:42;;;;;;;;;;;11.10;99.90;;;;;;5063322;28;19938;-74
2022/09/27 01:41:15;;;;;;;;;;;11.20;99.90;;;;;;5069785;28;19928;-75
2022/09/27 01:43:55;;;;;;;;;;;11.20;99.90;;;;;;5088558;28;19924;-75
2022/09/27 01:46:29;;;;;;;;;;;11.20;99.90;;;;;;5069336;28;20015;-76
2022/09/27 01:49:22;;;;;;;;;;;10.00;99.90;;;;;;5058370;28;20320;-76
2022/09/27 01:51:52;;;;;;;;;;;11.10;99.90;;;;;;5059943;28;19939;-75
2022/09/27 01:54:22;;;;;;;;;;;11.10;99.90;;;;;;5056307;28;19928;-75
2022/09/27 01:57:20;;;;;;;;;;;11.30;99.90;;;;;;5057558;28;19940;-75
2022/09/27 01:59:50;;;;;;;;;;;11.10;99.90;;;;;;5049405;28;19958;-75
2022/09/27 02:02:39;;;;;;;;;;;11.10;99.90;;;;;;5068198;28;20404;-76
2022/09/27 02:05:30;;;;;;;;;;;11.10;99.90;;;;;;5051636;28;19920;-77
2022/09/27 02:08:03;;;;;;;;;;;11.00;99.90;;;;;;5054361;28;19929;-77
2022/09/27 02:10:33;;;;;;;;;;;11.10;99.90;;;;;;5049079;28;19928;-76
2022/09/27 02:13:12;;;;;;;;;;;11.10;99.90;;;;;;5068309;28;19953;-77
2022/09/27 02:15:44;;;;;;;;;;;11.10;99.90;;;;;;5048272;28;19929;-76
2022/09/27 02:18:28;;;;;;;;;;;11.10;99.90;;;;;;5064502;28;20199;-77
2022/09/27 02:20:56;;;;;;;;;;;11.10;99.90;;;;;;5058040;28;19928;-77
2022/09/27 02:23:26;;;;;;;;;;;11.10;99.90;;;;;;5050115;28;20312;-76
2022/09/27 02:26:03;;;;;;;;;;;11.10;99.90;;;;;;5053658;28;19971;-77
2022/09/27 02:28:33;;;;;;;;;;;11.00;99.90;;;;;;5049579;28;19940;-76
2022/09/27 02:31:00;;;;;;;;;;;11.10;99.90;;;;;;5047880;28;19936;-77
2022/09/27 02:33:35;;;;;;;;;;;11.10;99.90;;;;;;5029545;28;20404;-76
2022/09/27 02:36:02;;;;;;;;;;;11.10;99.90;;;;;;5045762;28;19928;-76
2022/09/27 02:38:29;;;;;;;;;;;11.10;99.90;;;;;;5046006;28;19925;-76
2022/09/27 02:40:57;;;;;;;;;;;11.10;99.90;;;;;;5029278;28;20015;-76
2022/09/27 02:43:25;;;;;;;;;;;11.00;99.90;;;;;;5045298;28;19931;-76
2022/09/27 02:45:58;;;;;;;;;;;11.00;99.90;;;;;;5046127;28;20016;-75
2022/09/27 02:48:30;;;;;;;;;;;11.00;99.90;;;;;;5049510;28;20034;-75
2022/09/27 02:51:06;;;;;;;;;;;11.00;99.90;;;;;;5066727;28;19924;-75
2022/09/27 02:53:45;;;;;;;;;;;11.00;99.90;;;;;;5051551;28;19946;-74
2022/09/27 02:56:34;;;;;;;;;;;11.00;99.90;;;;;;5042769;28;20342;-77
2022/09/27 02:59:26;;;;;;;;;;;11.10;99.90;;;;;;5048894;28;19935;-77
2022/09/27 03:02:23;;;;;;;;;;;11.00;99.90;;;;;;5047595;28;19936;-77
2022/09/27 03:05:18;;;;;;;;;;;11.30;99.90;;;;;;5065266;28;19934;-76
2022/09/27 03:07:47;;;;;;;;;;;10.80;99.90;;;;;;5067590;28;20038;-77
2022/09/27 03:10:16;;;;;;;;;;;10.70;99.90;;;;;;5070620;28;19932;-77
2022/09/27 03:12:43;;;;;;;;;;;10.60;99.90;;;;;;5064197;28;19928;-76
2022/09/27 03:15:10;;;;;;;;;;;10.50;99.90;;;;;;5049959;28;19964;-76
2022/09/27 03:17:57;;;;;;;;;;;10.40;99.90;;;;;;5075065;28;19943;-77
2022/09/27 03:20:42;;;;;;;;;;;10.40;99.90;;;;;;5072071;28;19935;-76
2022/09/27 03:23:16;;;;;;;;;;;10.40;99.90;;;;;;5051755;28;19931;-75
2022/09/27 03:25:43;;;;;;;;;;;10.40;99.90;;;;;;5058542;28;19980;-76
2022/09/27 03:28:12;;;;;;;;;;;11.60;99.90;;;;;;5070306;28;19978;-74
2022/09/27 03:30:40;;;;;;;;;;;10.30;99.90;;;;;;5060764;28;20022;-74
2022/09/27 03:33:08;;;;;;;;;;;10.20;99.90;;;;;;5055156;28;19933;-74
2022/09/27 03:35:50;;;;;;;;;;;10.20;99.90;;;;;;5051603;28;19931;-74
2022/09/27 03:38:18;;;;;;;;;;;10.10;99.90;;;;;;5069881;28;19925;-74
2022/09/27 03:40:45;;;;;;;;;;;10.10;99.90;;;;;;5051247;28;20391;-74
2022/09/27 03:43:12;;;;;;;;;;;10.10;99.90;;;;;;5055056;28;20011;-74
2022/09/27 03:45:39;;;;;;;;;;;10.00;99.90;;;;;;5072263;28;20366;-75
2022/09/27 03:48:09;;;;;;;;;;;10.00;99.90;;;;;;5057097;28;20386;-75
2022/09/27 03:50:35;;;;;;;;;;;9.90;99.90;;;;;;5051765;28;19960;-74
2022/09/27 03:53:02;;;;;;;;;;;9.90;99.90;;;;;;5069281;28;19967;-75
2022/09/27 03:55:30;;;;;;;;;;;9.90;99.90;;;;;;5060136;28;19931;-75
2022/09/27 03:57:57;;;;;;;;;;;9.90;99.90;;;;;;5069774;28;19951;-74
2022/09/27 04:00:24;;;;;;;;;;;9.80;99.90;;;;;;5050348;28;19948;-74
2022/09/27 04:02:51;;;;;;;;;;;9.70;99.90;;;;;;5070075;28;19954;-74
2022/09/27 04:05:24;;;;;;;;;;;9.70;99.90;;;;;;5071886;28;19932;-75
2022/09/27 04:07:55;;;;;;;;;;;9.70;99.90;;;;;;5051760;28;19956;-75
2022/09/27 04:10:22;;;;;;;;;;;10.80;99.90;;;;;;5052422;28;19928;-74
2022/09/27 04:12:51;;;;;;;;;;;9.60;99.90;;;;;;5048133;28;20316;-74
2022/09/27 04:15:20;;;;;;;;;;;9.60;99.90;;;;;;5050519;28;19932;-75
2022/09/27 04:17:50;;;;;;;;;;;9.60;99.90;;;;;;5067545;28;20285;-74
2022/09/27 04:20:36;;;;;;;;;;;9.50;99.90;;;;;;5070682;28;19959;-74
2022/09/27 04:23:14;;;;;;;;;;;9.60;99.90;;;;;;5049497;28;19989;-76
2022/09/27 04:25:47;;;;;;;;;;;9.60;99.90;;;;;;5064753;28;19927;-76
2022/09/27 04:28:24;;;;;;;;;;;9.60;99.90;;;;;;5072312;28;19928;-77
2022/09/27 04:30:51;;;;;;;;;;;9.60;99.90;;;;;;5056204;28;19982;-77
2022/09/27 04:33:34;;;;;;;;;;;9.60;99.90;;;;;;5053429;28;19929;-76
2022/09/27 04:36:27;;;;;;;;;;;9.60;99.90;;;;;;5051063;28;20032;-75
2022/09/27 04:39:02;;;;;;;;;;;9.70;99.90;;;;;;5049511;28;20058;-76
2022/09/27 04:41:29;;;;;;;;;;;9.70;99.90;;;;;;5051269;28;19948;-76
2022/09/27 04:44:00;;;;;;;;;;;9.60;99.90;;;;;;5051093;28;20173;-76
2022/09/27 04:46:30;;;;;;;;;;;9.60;99.90;;;;;;5055168;28;19958;-75
2022/09/27 04:48:57;;;;;;;;;;;9.60;99.90;;;;;;5052884;28;20462;-75
2022/09/27 04:51:23;;;;;;;;;;;9.60;99.90;;;;;;5052619;28;19929;-75
2022/09/27 04:53:51;;;;;;;;;;;9.60;99.90;;;;;;5049840;28;19928;-75
2022/09/27 04:56:19;;;;;;;;;;;9.60;99.90;;;;;;5051113;28;19981;-75
2022/09/27 04:58:46;;;;;;;;;;;9.60;99.90;;;;;;5053545;28;20388;-75
2022/09/27 05:01:15;;;;;;;;;;;9.50;99.90;;;;;;5060869;28;20343;-73
2022/09/27 05:04:00;;;;;;;;;;;9.60;99.90;;;;;;5071131;28;19932;-76
2022/09/27 05:06:28;;;;;;;;;;;9.50;99.90;;;;;;5065384;28;19935;-75
2022/09/27 05:08:58;;;;;;;;;;;9.60;99.90;;;;;;5053531;28;20212;-75
2022/09/27 05:11:27;;;;;;;;;;;9.60;99.90;;;;;;5054680;28;20395;-75
2022/09/27 05:14:13;;;;;;;;;;;9.60;99.90;;;;;;5062114;28;20255;-75
2022/09/27 05:16:51;;;;;;;;;;;9.70;99.90;;;;;;5050084;28;19934;-76
2022/09/27 05:19:39;;;;;;;;;;;9.80;99.90;;;;;;5023725;28;19950;-74
2022/09/27 05:22:16;;;;;;;;;;;9.90;99.90;;;;;;5055049;28;19928;-75
2022/09/27 05:24:43;;;;;;;;;;;9.90;99.90;;;;;;5069211;28;20060;-75
2022/09/27 05:27:12;;;;;;;;;;;9.80;99.90;;;;;;5069223;28;19982;-75
2022/09/27 05:29:40;;;;;;;;;;;9.80;99.90;;;;;;5050126;28;19928;-74
2022/09/27 05:32:29;;;;;;;;;;;9.80;99.90;;;;;;5053256;28;20339;-74
2022/09/27 05:35:17;;;;;;;;;;;9.80;99.90;;;;;;5068632;28;19936;-75
2022/09/27 05:37:43;;;;;;;;;;;9.90;99.90;;;;;;5069228;28;20333;-74
2022/09/27 05:40:10;;;;;;;;;;;9.80;99.90;;;;;;5067863;28;19924;-74
2022/09/27 05:42:38;;;;;;;;;;;9.90;99.90;;;;;;5049535;28;19940;-75
2022/09/27 05:45:06;;;;;;;;;;;9.90;99.90;;;;;;5048089;28;19928;-75
2022/09/27 05:47:36;;;;;;;;;;;10.00;99.90;;;;;;5050049;28;19928;-75
2022/09/27 05:50:05;;;;;;;;;;;10.00;99.90;;;;;;5078112;28;20381;-74
2022/09/27 05:52:31;;;;;;;;;;;10.10;99.90;;;;;;5038397;28;20401;-74
2022/09/27 05:54:59;;;;;;;;;;;10.10;99.90;;;;;;5055073;28;19933;-74
2022/09/27 05:57:25;;;;;;;;;;;10.10;99.90;;;;;;5050723;28;20431;-74
2022/09/27 05:59:56;;;;;;;;;;;10.10;99.90;;;;;;5061384;28;20023;-75
2022/09/27 06:02:42;;;;;;;;;;;10.20;99.90;;;;;;5069809;28;20397;-73
2022/09/27 06:05:28;;;;;;;;;;;11.60;99.90;;;;;;5068286;28;19939;-74
2022/09/27 06:08:14;;;;;;;;;;;10.20;99.90;;;;;;5068295;28;19948;-74
2022/09/27 06:10:46;;;;;;;;;;;10.30;99.90;;;;;;5050095;28;20042;-74
2022/09/27 06:13:13;;;;;;;;;;;10.30;99.90;;;;;;5049642;28;19929;-74
2022/09/27 06:15:43;;;;;;;;;;;10.40;99.90;;;;;;5057216;28;19924;-75
2022/09/27 06:18:12;;;;;;;;;;;10.40;99.90;;;;;;5068548;28;19978;-75
2022/09/27 06:20:40;;;;;;;;;;;10.40;99.90;;;;;;5030542;28;20042;-74
2022/09/27 06:23:08;;;;;;;;;;;10.40;99.90;;;;;;5041742;28;19924;-74
2022/09/27 06:25:36;;;;;;;;;;;10.50;99.90;;;;;;5057317;28;19960;-74
2022/09/27 06:28:18;;;;;;;;;;;10.50;99.90;;;;;;5049937;28;19978;-75
2022/09/27 06:30:49;;;;;;;;;;;10.60;99.90;;;;;;5048685;28;19928;-75
2022/09/27 06:33:32;;;;;;;;;;;10.60;99.90;;;;;;5049902;28;20540;-75
2022/09/27 06:36:04;;;;;;;;;;;10.70;99.90;;;;;;5067710;28;19944;-75
2022/09/27 06:38:31;;;;;;;;;;;10.60;99.90;;;;;;5041276;28;20394;-73
2022/09/27 06:41:20;;;;;;;;;;;10.70;99.90;;;;;;5049926;28;19967;-73
2022/09/27 06:44:05;;;;;;;;;;;10.70;99.90;;;;;;5070712;28;20349;-74
2022/09/27 06:46:51;;;;;;;;;;;10.80;99.90;;;;;;5071419;28;20100;-74
2022/09/27 06:49:45;;;;;;;;;;;10.80;99.90;;;;;;5048980;28;19924;-74
2022/09/27 06:52:14;;;;;;;;;;;10.80;99.90;;;;;;5054797;28;19928;-73
2022/09/27 06:54:41;;;;;;;;;;;10.80;99.90;;;;;;5061173;28;19936;-75
2022/09/27 06:57:08;;;;;;;;;;;10.80;99.90;;;;;;5071710;28;20346;-75
2022/09/27 07:02:34;;;;;;;;;;;10.90;99.90;;;;;;5044180;28;19927;-75
2022/09/27 07:05:20;;;;;;;;;;;10.90;99.90;;;;;;5053029;28;19936;-75
2022/09/27 07:07:59;;;;;;;;;;;11.00;99.90;;;;;;5072659;28;20011;-75
2022/09/27 07:10:28;;;;;;;;;;;11.10;99.90;;;;;;5055882;28;19925;-75
2022/09/27 07:12:55;;;;;;;;;;;11.20;99.90;;;;;;5056744;28;20394;-76
2022/09/27 07:15:22;;;;;;;;;;;11.30;99.90;;;;;;5061259;28;19925;-76
2022/09/27 07:17:55;;;;;;;;;;;11.40;99.90;;;;;;5073642;28;19935;-75
2022/09/27 07:20:24;;;;;;;;;;;11.50;99.90;;;;;;5057176;28;19964;-75
2022/09/27 07:22:50;;;;;;;;;;;11.60;99.90;;;;;;5069782;28;20333;-74
2022/09/27 07:25:18;;;;;;;;;;;11.70;99.90;;;;;;5070400;28;19928;-76
2022/09/27 07:27:44;;;;;;;;;;;11.70;99.90;;;;;;5059159;28;19943;-75
2022/09/27 07:30:12;;;;;;;;;;;11.60;99.90;;;;;;5048880;28;20384;-74
2022/09/27 07:32:39;;;;;;;;;;;11.60;99.90;;;;;;5051694;28;19928;-74
2022/09/27 07:35:09;;;;;;;;;;;11.60;99.90;;;;;;5051446;28;19958;-74
2022/09/27 07:37:37;;;;;;;;;;;11.70;99.90;;;;;;5069983;28;20607;-75
2022/09/27 07:40:06;;;;;;;;;;;11.80;99.90;;;;;;5051350;28;20401;-75
2022/09/27 07:42:33;;;;;;;;;;;11.90;99.90;;;;;;5052425;28;20141;-74
2022/09/27 07:45:00;;;;;;;;;;;11.90;99.90;;;;;;5061016;28;20389;-74
2022/09/27 07:47:47;;;;;;;;;;;12.00;99.90;;;;;;5062381;28;20403;-75
2022/09/27 07:50:22;;;;;;;;;;;12.20;99.90;;;;;;5069643;28;19925;-75
2022/09/27 07:52:58;;;;;;;;;;;12.40;99.90;;;;;;5075500;28;20053;-75
2022/09/27 07:55:46;;;;;;;;;;;;;;;;;;5048961;28;20384;-74
2022/09/27 07:58:18;;;;;;;;;;;12.80;99.90;;;;;;5049239;28;19928;-74
2022/09/27 08:00:45;;;;;;;;;;;12.80;99.90;;;;;;5050216;28;19928;-74
2022/09/27 08:03:14;;;;;;;;;;;12.80;99.90;;;;;;5051457;28;20029;-75
2022/09/27 08:05:41;;;;;;;;;;;12.90;99.90;;;;;;5061689;28;19929;-75
2022/09/27 08:08:10;;;;;;;;;;;12.90;99.90;;;;;;5051575;28;19928;-74
2022/09/27 08:10:38;;;;;;;;;;;12.80;99.90;;;;;;5051864;28;20015;-75
2022/09/27 08:13:05;;;;;;;;;;;12.70;99.90;;;;;;5051291;28;19929;-74
2022/09/27 08:15:34;;;;;;;;;;;12.60;99.90;;;;;;5070250;28;19932;-74
2022/09/27 08:18:01;;;;;;;;;;;12.60;99.90;;;;;;5069650;28;20011;-74
2022/09/27 08:20:46;;;;;;;;;;;12.60;99.90;;;;;;5050138;28;20175;-74
2022/09/27 08:23:47;;;;;;;;;;;12.80;99.90;;;;;;5043986;28;19928;-74
2022/09/27 08:26:18;;;;;;;;;;;13.10;99.90;;;;;;5053123;28;19929;-74
2022/09/27 08:29:14;;;;;;;;;;;13.30;99.90;;;;;;5046931;28;20002;-74
2022/09/27 08:31:52;;;;;;;;;;;13.30;99.90;;;;;;5050399;28;19942;-73
2022/09/27 08:34:19;;;;;;;;;;;13.20;99.90;;;;;;5050634;28;19929;-75
2022/09/27 08:36:46;;;;;;;;;;;12.90;99.90;;;;;;5051070;28;19983;-74
2022/09/27 08:39:14;;;;;;;;;;;13.20;99.90;;;;;;5069852;28;19939;-74
2022/09/27 08:41:50;;;;;;;;;;;13.20;99.90;;;;;;5059405;28;20448;-74
2022/09/27 08:44:21;;;;;;;;;;;13.20;99.90;;;;;;5050598;28;19929;-74
2022/09/27 08:47:02;;;;;;;;;;;13.10;99.90;;;;;;5565883;22;20183;-73
2022/09/27 08:49:32;;;;;;;;;;;13.10;99.90;;;;;;5057345;28;19932;-73
2022/09/27 08:51:59;;;;;;;;;;;12.90;99.90;;;;;;5068007;28;19958;-74
2022/09/27 08:54:29;;;;;;;;;;;12.90;99.90;;;;;;5089672;28;21055;-74
2022/09/27 08:57:01;;;;;;;;;;;12.90;99.90;;;;;;5069325;28;19925;-75
2022/09/27 08:59:30;;;;;;;;;;;12.90;99.90;;;;;;5062549;28;19954;-75
2022/09/27 09:01:58;;;;;;;;;;;12.30;99.90;;;;;;5060798;28;20012;-76
2022/09/27 09:04:34;;;;;;;;;;;13.20;99.90;;;;;;5048493;28;19978;-76
2022/09/27 09:07:06;;;;;;;;;;;13.10;99.90;;;;;;5051245;28;19932;-77
2022/09/27 09:09:39;;;;;;;;;;;13.00;99.90;;;;;;5067905;28;20140;-76
2022/09/27 09:15:15;;;;;;;;;;;13.00;99.90;;;;;;5047956;28;20054;-76
2022/09/27 09:17:57;;;;;;;;;;;13.10;99.90;;;;;;5072498;28;19924;-76
2022/09/27 09:20:35;;;;;;;;;;;13.20;99.90;;;;;;5057355;28;20412;-76
2022/09/27 09:23:20;;;;;;;;;;;14.40;99.90;;;;;;5048008;28;19924;-76
2022/09/27 09:25:52;;;;;;;;;;;13.20;99.90;;;;;;5045414;28;20332;-76
2022/09/27 09:28:26;;;;;;;;;;;13.20;99.90;;;;;;5050726;28;20385;-76
2022/09/27 09:30:56;;;;;;;;;;;13.30;99.90;;;;;;5052037;28;19935;-77
2022/09/27 09:33:26;;;;;;;;;;;13.40;99.90;;;;;;5052173;28;20490;-77
2022/09/27 09:35:57;;;;;;;;;;;13.70;99.90;;;;;;5051068;28;20032;-77
2022/09/27 09:38:29;;;;;;;;;;;13.70;99.90;;;;;;5050404;28;20138;-77
2022/09/27 09:41:00;;;;;;;;;;;14.00;99.90;;;;;;5050196;28;19925;-77
2022/09/27 09:43:30;;;;;;;;;;;14.20;99.90;;;;;;5050857;28;19946;-77
2022/09/27 09:46:01;;;;;;;;;;;14.40;99.90;;;;;;5050008;28;20398;-77
2022/09/27 09:48:30;;;;;;;;;;;14.40;99.90;;;;;;5068433;28;19932;-77
2022/09/27 09:51:00;;;;;;;;;;;14.50;99.90;;;;;;5050648;28;20388;-77
2022/09/27 09:53:32;;;;;;;;;;;14.60;99.90;;;;;;5049711;28;19925;-77
2022/09/27 09:56:03;;;;;;;;;;;14.50;99.90;;;;;;5050541;28;20035;-76
2022/09/27 09:58:34;;;;;;;;;;;14.50;99.90;;;;;;5065712;28;20454;-78
2022/09/27 10:01:12;;;;;;;;;;;14.50;99.90;;;;;;5065555;28;19974;-77
2022/09/27 10:03:40;;;;;;;;;;;14.50;99.90;;;;;;5050370;28;20335;-77
2022/09/27 10:06:09;;;;;;;;;;;14.50;99.90;;;;;;5050025;28;20373;-77
2022/09/27 10:08:36;;;;;;;;;;;14.50;99.90;;;;;;5050267;28;19982;-77
2022/09/27 10:11:24;;;;;;;;;;;14.40;99.90;;;;;;5050565;28;19999;-79
2022/09/27 10:14:10;;;;;;;;;;;14.50;99.90;;;;;;5049677;28;19928;-75
2022/09/27 10:16:37;;;;;;;;;;;14.60;99.90;;;;;;5059293;28;20395;-77
2022/09/27 10:19:04;;;;;;;;;;;14.60;99.90;;;;;;5053340;28;19936;-77
2022/09/27 10:21:33;;;;;;;;;;;14.50;99.90;;;;;;5053739;28;20376;-78
2022/09/27 10:24:05;;;;;;;;;;;14.60;99.90;;;;;;5054133;28;19936;-77
2022/09/27 10:27:00;;;;;;;;;;;14.60;99.90;;;;;;5049252;28;19963;-77
2022/09/27 10:29:29;;;;;;;;;;;14.50;99.90;;;;;;5034589;28;19955;-77
2022/09/27 10:31:56;;;;;;;;;;;14.40;99.90;;;;;;5059114;28;19960;-78
2022/09/27 10:34:33;;;;;;;;;;;14.40;99.90;;;;;;5053693;28;19931;-77
2022/09/27 10:37:07;;;;;;;;;;;14.50;99.90;;;;;;5057243;28;20003;-77
2022/09/27 10:39:37;;;;;;;;;;;14.50;99.90;;;;;;5054361;28;19928;-77
2022/09/27 10:42:19;;;;;;;;;;;14.40;99.90;;;;;;5052220;28;19929;-78
2022/09/27 10:44:46;;;;;;;;;;;14.30;99.90;;;;;;5064257;28;19978;-76
2022/09/27 10:47:25;;;;;;;;;;;14.20;99.90;;;;;;5051229;28;20409;-76
2022/09/27 10:50:20;;;;;;;;;;;14.30;99.90;;;;;;5076581;28;19935;-77
2022/09/27 10:53:02;;;;;;;;;;;14.30;99.90;;;;;;5053396;28;19974;-77
2022/09/27 10:55:32;;;;;;;;;;;14.40;99.90;;;;;;5061632;28;19932;-77
2022/09/27 10:58:02;;;;;;;;;;;14.40;99.90;;;;;;5053600;28;20015;-76
2022/09/27 11:00:31;;;;;;;;;;;14.50;99.90;;;;;;5033885;28;19944;-76
2022/09/27 11:02:59;;;;;;;;;;;14.40;99.90;;;;;;5033324;28;19931;-76
2022/09/27 11:05:32;;;;;;;;;;;14.40;99.90;;;;;;5047769;28;19944;-76
2022/09/27 11:08:01;;;;;;;;;;;14.30;99.90;;;;;;5052273;28;19939;-77
2022/09/27 11:11:00;;;;;;;;;;;14.20;99.90;;;;;;5058841;28;20251;-76
2022/09/27 11:13:31;;;;;;;;;;;14.20;99.90;;;;;;5078496;28;19966;-76
2022/09/27 11:16:05;;;;;;;;;;;14.10;99.90;;;;;;5056804;28;20023;-76
2022/09/27 11:18:39;;;;;;;;;;;14.20;99.90;;;;;;5044954;28;19939;-76
2022/09/27 11:21:11;;;;;;;;;;;14.20;99.90;;;;;;5072317;28;19981;-75
2022/09/27 11:23:47;;;;;;;;;;;14.30;99.90;;;;;;5051793;28;19928;-75
2022/09/27 11:26:37;;;;;;;;;;;14.40;99.90;;;;;;5054386;28;19924;-76
2022/09/27 11:29:12;;;;;;;;;;;14.50;99.90;;;;;;5068135;28;20046;-76
2022/09/27 11:32:11;;;;;;;;;;;14.50;99.90;;;;;;5057496;28;20014;-75
2022/09/27 11:34:53;;;;;;;;;;;14.60;99.90;;;;;;5052337;28;19930;-76
2022/09/27 11:37:24;;;;;;;;;;;14.80;99.90;;;;;;5069737;28;19955;-76
2022/09/27 11:40:03;;;;;;;;;;;15.00;99.90;;;;;;5054924;28;19946;-75
2022/09/27 11:42:40;;;;;;;;;;;15.20;99.90;;;;;;5069273;28;19929;-77
2022/09/27 11:45:20;;;;;;;;;;;15.40;99.90;;;;;;5051182;28;20015;-75
2022/09/27 11:47:55;;;;;;;;;;;15.50;99.90;;;;;;5069355;28;19928;-74
2022/09/27 11:50:32;;;;;;;;;;;15.50;99.90;;;;;;5051120;28;19928;-75
2022/09/27 11:53:10;;;;;;;;;;;15.30;99.90;;;;;;5050960;28;19925;-75
2022/09/27 11:55:43;;;;;;;;;;;15.50;99.90;;;;;;5043696;28;20464;-75
2022/09/27 11:58:16;;;;;;;;;;;15.20;99.90;;;;;;5059219;28;20348;-75
2022/09/27 12:00:52;;;;;;;;;;;16.10;99.90;;;;;;5053973;28;20002;-77
2022/09/27 12:03:35;;;;;;;;;;;14.80;99.90;;;;;;5058903;28;20308;-75
2022/09/27 12:06:09;;;;;;;;;;;14.40;99.90;;;;;;5068375;28;20581;-76
2022/09/27 12:08:48;;;;;;;;;;;14.40;99.90;;;;;;5071402;28;19924;-76
2022/09/27 12:11:18;;;;;;;;;;;14.20;99.90;;;;;;5071842;28;19928;-76
2022/09/27 12:13:47;;;;;;;;;;;14.00;99.90;;;;;;5061503;28;20184;-76
2022/09/27 12:16:17;;;;;;;;;;;13.80;99.90;;;;;;5051379;28;20019;-76
2022/09/27 12:18:46;;;;;;;;;;;13.50;99.90;;;;;;5051442;28;19924;-76
2022/09/27 12:21:33;;;;;;;;;;;14.50;99.90;;;;;;5068717;28;19929;-76
2022/09/27 12:24:02;;;;;;;;;;;13.20;99.90;;;;;;5046084;28;19928;-75
2022/09/27 12:26:36;;;;;;;;;;;13.30;99.90;;;;;;5052503;28;20136;-76
2022/09/27 12:29:06;;;;;;;;;;;13.40;99.90;;;;;;5062689;28;19928;-76
2022/09/27 12:31:37;;;;;;;;;;;13.50;99.90;;;;;;5061211;28;20344;-76
2022/09/27 12:34:11;;;;;;;;;;;13.50;99.90;;;;;;5060364;28;20048;-75
2022/09/27 12:36:43;;;;;;;;;;;13.50;99.90;;;;;;5031272;28;19935;-77
2022/09/27 12:39:15;;;;;;;;;;;13.40;99.90;;;;;;5048136;28;19963;-75
2022/09/27 12:41:48;;;;;;;;;;;13.20;99.90;;;;;;5059912;28;20308;-75
2022/09/27 12:44:24;;;;;;;;;;;13.00;99.90;;;;;;5053526;28;19940;-75
2022/09/27 12:47:01;;;;;;;;;;;12.90;99.90;;;;;;5059186;28;19943;-75
2022/09/27 12:49:33;;;;;;;;;;;12.80;99.90;;;;;;5062432;28;19924;-75
2022/09/27 12:52:02;;;;;;;;;;;12.70;99.90;;;;;;5059964;28;19928;-75
2022/09/27 12:54:49;;;;;;;;;;;12.80;99.90;;;;;;5058801;28;19928;-75
2022/09/27 12:57:21;;;;;;;;;;;12.90;99.90;;;;;;5050536;28;19970;-76
2022/09/27 12:59:55;;;;;;;;;;;13.10;99.90;;;;;;5050331;28;20449;-76
2022/09/27 13:02:45;;;;;;;;;;;13.20;99.90;;;;;;5105581;27;19916;-75
2022/09/27 13:05:27;;;;;;;;;;;13.30;99.90;;;;;;5103412;28;19939;-75
2022/09/27 13:08:15;;;;;;;;;;;12.20;99.90;;;;;;5092705;28;19924;-76
2022/09/27 13:10:46;;;;;;;;;;;13.80;99.90;;;;;;5083556;28;19938;-76
2022/09/27 13:13:25;;;;;;;;;;;14.00;99.90;;;;;;5118702;28;19944;-75
2022/09/27 13:15:55;;;;;;;;;;;14.30;99.90;;;;;;5084469;28;20453;-78
2022/09/27 13:18:31;;;;;;;;;;;14.30;99.90;;;;;;5083746;28;20357;-75
2022/09/27 13:20:58;;;;;;;;;;;14.50;99.90;;;;;;5083690;28;20348;-76
2022/09/27 13:23:59;;;;;;;;;;;14.60;99.90;;;;;;5083575;28;20022;-76
2022/09/27 13:26:45;;;;;;;;;;;14.70;99.90;;;;;;5080553;28;20290;-78
2022/09/27 13:29:28;;;;;;;;;;;14.90;99.90;;;;;;5064053;28;20259;-76
2022/09/27 13:32:11;;;;;;;;;;;14.90;99.90;;;;;;5088519;28;20312;-76
2022/09/27 13:35:11;;;;;;;;;;;14.90;99.90;;;;;;5086037;28;19925;-77
2022/09/27 13:37:47;;;;;;;;;;;15.00;99.90;;;;;;5118423;27;20419;-75
2022/09/27 13:40:21;;;;;;;;;;;15.00;99.90;;;;;;5082425;28;20044;-78
2022/09/27 13:43:27;;;;;;;;;;;15.10;99.90;;;;;;5083769;28;19928;-75
2022/09/27 13:46:01;;;;;;;;;;;15.40;99.90;;;;;;5082204;28;19924;-76
2022/09/27 13:48:32;;;;;;;;;;;15.60;99.90;;;;;;5082802;28;19928;-76
2022/09/27 13:51:01;;;;;;;;;;;15.40;99.90;;;;;;5117402;28;19924;-76
2022/09/27 13:53:30;;;;;;;;;;;15.40;99.90;;;;;;5084759;28;20193;-74
2022/09/27 13:55:57;;;;;;;;;;;15.20;99.90;;;;;;5082020;28;19928;-77
2022/09/27 13:58:44;;;;;;;;;;;15.20;99.90;;;;;;5081187;28;19928;-75
2022/09/27 14:01:33;;;;;;;;;;;15.00;99.90;;;;;;5092221;28;19971;-76
2022/09/27 14:04:02;;;;;;;;;;;14.90;99.90;;;;;;5085957;28;19924;-76
2022/09/27 14:06:34;;;;;;;;;;;15.60;99.90;;;;;;5085950;28;19924;-76
2022/09/27 14:09:03;;;;;;;;;;;14.80;99.90;;;;;;5086240;28;19973;-76
2022/09/27 14:11:33;;;;;;;;;;;14.70;99.90;;;;;;5085407;28;20396;-76
2022/09/27 14:14:01;;;;;;;;;;;14.70;99.90;;;;;;5103504;28;19924;-75
2022/09/27 14:16:33;;;;;;;;;;;14.70;99.90;;;;;;5065962;28;19924;-75
2022/09/27 14:19:01;;;;;;;;;;;14.80;99.90;;;;;;5109139;28;20354;-77
2022/09/27 14:21:37;;;;;;;;;;;15.00;99.90;;;;;;5066042;28;19924;-75
2022/09/27 14:24:24;;;;;;;;;;;15.20;99.90;;;;;;5070018;28;20377;-76
2022/09/27 14:26:51;;;;;;;;;;;15.40;99.90;;;;;;5073791;28;20011;-77
2022/09/27 14:29:19;;;;;;;;;;;15.60;99.90;;;;;;5073193;28;19971;-75
2022/09/27 14:31:48;;;;;;;;;;;15.70;99.90;;;;;;5072200;28;20393;-75
2022/09/27 14:34:18;;;;;;;;;;;15.80;99.90;;;;;;5071495;28;20033;-74
2022/09/27 14:39:42;;;;;;;;;;;15.70;99.90;;;;;;5071192;28;19928;-74
2022/09/27 14:42:31;;;;;;;;;;;15.40;99.90;;;;;;5071860;28;19931;-74
2022/09/27 14:45:00;;;;;;;;;;;15.10;99.90;;;;;;5066939;28;19936;-74
2022/09/27 14:47:28;;;;;;;;;;;14.80;99.90;;;;;;5089983;28;20684;-74
2022/09/27 14:49:56;;;;;;;;;;;14.60;99.90;;;;;;5088065;28;20313;-74
2022/09/27 14:52:27;;;;;;;;;;;14.40;99.90;;;;;;5089898;28;19928;-74
2022/09/27 14:54:58;;;;;;;;;;;14.30;99.90;;;;;;5090270;28;20001;-74
2022/09/27 14:57:25;;;;;;;;;;;14.30;99.90;;;;;;5089775;28;19930;-74
2022/09/27 14:59:52;;;;;;;;;;;14.30;99.90;;;;;;5064887;28;19933;-74
2022/09/27 15:02:21;;;;;;;;;;;14.50;99.90;;;;;;5077480;22;20409;-74
2022/09/27 15:04:49;;;;;;;;;;;14.70;99.90;;;;;;5068923;28;19929;-74